Portada
METAR-TAF:

METAR-TAF

Aeroports :

NASA Shuttle Landing Facility

Centre espacial John F. Kennedy, Florida, Estats Units d'Amèrica

latitud: 28-37N, longitud: 080-43W, altitud: 3 m

Observació

L'informe es va fer fa 25 minuts, a les 05:56 UTC
Vent 6 kt del Nord-Oest
Temperatura 26°C
Humitat 100%
Pressió 1013 hPa
Visibilitat: 16.1 km
Núvols disperses a una alçada de 1900 ft
Núvols disperses a una alçada de 2500 ft
Cel ennuvolat a una alçada de 3300 ft
Cel ennuvolat a una alçada de 4200 ft

METAR: KTTS 160556Z 32006KT 10SM SCT019 SCT025 BKN033 BKN042 26/26 A2990 RMK AO2A DZB42E52 SLP129 P//// 6//// T02600260 10279 20260 50004 FZRANO $

Hora: 02:21 (06:21 UTC)


TAF: manca

Observacions i pronòstics meteorològics de més de 4000 aeroports (METAR i TAF).

Les estacions disponibles són els punts grocs i vermells al mapa.

Posi el ratolí al punt desitjat per veure el nom de l'estació.

Feu clic per veure les observacions i els pronòstics meteorològics.

Per canviar el mapa: feu clic els botons verds amb una creu de color negre per apropar; al botó verd amb un guió per allunyar la imatge; o en les fletxes verdes per a mapes adjacents.


METAR-TAF: